Time;durP1;ratioP1;P1;durP2;ratioP2;P2;SDS_P1;SDS_P2;PMS_P1;PMS_P2;Temp;Humidity;BMP_temperature;BMP_pressure;BME280_temperature;BME280_humidity;BME280_pressure;Samples;Min_cycle;Max_cycle;Signal;HPM_P1;HPM_P2
2022/07/20 00:00:03;;;;;;;5.18;2.55;;;26.10;43.90;;;;;;9183956;19;20014;-65
2022/07/20 00:03:14;;;;;;;4.25;2.08;;;26.10;44.00;;;;;;9183455;19;20081;-65
2022/07/20 00:06:19;;;;;;;4.45;2.30;;;26.00;44.10;;;;;;9176824;19;20022;-67
2022/07/20 00:12:44;;;;;;;6.38;2.42;;;25.90;44.20;;;;;;9181251;19;20022;-65
2022/07/20 00:15:50;;;;;;;5.40;2.78;;;25.80;44.30;;;;;;9183665;19;20027;-65
2022/07/20 00:18:55;;;;;;;6.53;2.80;;;25.80;44.30;;;;;;9181576;19;20423;-66
2022/07/20 00:22:00;;;;;;;5.22;2.50;;;25.70;44.40;;;;;;9179240;19;20021;-66
2022/07/20 00:25:06;;;;;;;4.82;2.17;;;25.60;44.40;;;;;;9181276;19;20010;-65
2022/07/20 00:28:13;;;;;;;11.98;2.58;;;25.60;44.60;;;;;;9183150;19;20025;-65
2022/07/20 00:31:18;;;;;;;3.55;2.03;;;25.50;44.70;;;;;;9179574;19;20027;-65
2022/07/20 00:34:23;;;;;;;11.55;2.65;;;25.50;44.80;;;;;;9181380;19;20019;-65
2022/07/20 00:37:28;;;;;;;6.60;2.40;;;25.40;44.80;;;;;;9182723;19;20010;-65
2022/07/20 00:40:33;;;;;;;7.07;2.67;;;25.30;44.90;;;;;;9182371;19;20376;-66
2022/07/20 00:44:00;;;;;;;5.55;2.53;;;25.30;45.00;;;;;;9181972;19;20014;-65
2022/07/20 00:47:06;;;;;;;4.07;2.70;;;25.20;45.20;;;;;;9180293;19;20029;-66
2022/07/20 00:50:11;;;;;;;5.50;2.70;;;25.20;45.10;;;;;;9178851;19;20018;-65
2022/07/20 00:53:16;;;;;;;4.80;2.47;;;25.10;45.20;;;;;;9179465;19;20019;-65
2022/07/20 00:56:29;;;;;;;7.03;2.55;;;25.10;45.30;;;;;;9180142;19;20043;-64
2022/07/20 00:59:37;;;;;;;5.07;2.75;;;25.00;45.40;;;;;;9181720;19;20017;-64
2022/07/20 01:02:42;;;;;;;5.00;2.58;;;25.00;45.50;;;;;;9180414;19;20110;-65
2022/07/20 01:05:47;;;;;;;6.43;3.00;;;24.90;45.50;;;;;;9174805;19;20110;-65
2022/07/20 01:08:52;;;;;;;11.07;2.50;;;24.90;45.60;;;;;;9180780;19;20006;-65
2022/07/20 01:11:58;;;;;;;7.97;2.60;;;24.80;45.70;;;;;;9180848;19;20547;-66
2022/07/20 01:15:06;;;;;;;3.60;2.90;;;24.80;45.90;;;;;;9181115;19;20025;-65
2022/07/20 01:18:11;;;;;;;4.70;2.90;;;24.70;45.90;;;;;;9178492;19;20106;-64
2022/07/20 01:21:20;;;;;;;5.10;3.03;;;24.60;45.90;;;;;;9179742;19;20014;-64
2022/07/20 01:24:25;;;;;;;4.65;2.80;;;24.60;46.10;;;;;;9178407;19;20013;-64
2022/07/20 01:27:32;;;;;;;5.47;2.28;;;24.50;46.10;;;;;;9177866;19;20018;-64
2022/07/20 01:30:38;;;;;;;5.78;2.50;;;24.50;46.20;;;;;;9179141;19;20024;-65
2022/07/20 01:33:43;;;;;;;5.38;3.35;;;24.40;46.30;;;;;;9175842;19;20014;-65
2022/07/20 01:36:50;;;;;;;9.15;2.70;;;24.40;46.40;;;;;;9178301;19;20015;-65
2022/07/20 01:39:55;;;;;;;8.10;2.90;;;24.30;46.50;;;;;;9179842;19;20014;-65
2022/07/20 01:43:00;;;;;;;7.78;2.90;;;24.30;46.50;;;;;;9178400;19;20011;-65
2022/07/20 01:46:05;;;;;;;5.25;3.10;;;24.20;46.70;;;;;;9176594;19;20024;-64
2022/07/20 01:49:11;;;;;;;3.97;2.75;;;24.20;46.70;;;;;;9177446;19;20018;-64
2022/07/20 01:52:18;;;;;;;4.50;2.67;;;24.10;46.80;;;;;;9179432;19;20018;-64
2022/07/20 01:55:23;;;;;;;9.13;3.05;;;24.10;46.90;;;;;;9179572;19;20019;-66
2022/07/20 01:58:28;;;;;;;5.50;2.70;;;24.00;46.90;;;;;;9178014;19;20357;-66
2022/07/20 02:01:34;;;;;;;3.33;2.83;;;24.00;47.00;;;;;;9177329;19;20018;-65
2022/07/20 02:04:39;;;;;;;4.10;2.80;;;23.90;47.00;;;;;;9177886;19;20031;-65
2022/07/20 02:07:47;;;;;;;6.85;3.33;;;23.90;47.10;;;;;;9175042;19;20026;-64
2022/07/20 02:10:52;;;;;;;3.13;2.60;;;23.80;47.10;;;;;;9176577;19;20018;-65
2022/07/20 02:13:57;;;;;;;5.38;3.22;;;23.80;47.10;;;;;;9177216;19;20809;-65
2022/07/20 02:17:02;;;;;;;7.50;3.35;;;23.70;47.10;;;;;;9177264;19;20030;-64
2022/07/20 02:20:09;;;;;;;7.90;3.42;;;23.70;47.30;;;;;;9178397;19;20010;-65
2022/07/20 02:23:17;;;;;;;6.78;3.00;;;23.70;47.30;;;;;;9176693;19;20015;-65
2022/07/20 02:26:22;;;;;;;7.78;3.53;;;23.60;47.40;;;;;;9178137;19;20023;-65
2022/07/20 02:29:27;;;;;;;5.03;2.88;;;23.60;47.40;;;;;;9178719;19;20011;-65
2022/07/20 02:32:31;;;;;;;6.07;2.80;;;23.60;47.50;;;;;;9177657;19;20025;-65
2022/07/20 02:35:36;;;;;;;11.65;3.17;;;23.50;47.50;;;;;;9176622;19;20468;-65
2022/07/20 02:38:44;;;;;;;6.03;2.88;;;23.50;47.60;;;;;;9177290;19;20030;-64
2022/07/20 02:41:50;;;;;;;7.70;4.20;;;23.40;47.60;;;;;;9178354;19;20460;-65
2022/07/20 02:44:55;;;;;;;6.35;3.28;;;23.40;47.70;;;;;;9182263;19;20014;-65
2022/07/20 02:48:02;;;;;;;4.43;3.22;;;23.30;47.70;;;;;;9187855;19;20018;-66
2022/07/20 02:51:08;;;;;;;7.00;3.50;;;23.30;47.80;;;;;;9182481;19;20029;-65
2022/07/20 02:54:15;;;;;;;5.88;3.22;;;23.20;47.80;;;;;;9184999;19;20022;-65
2022/07/20 02:57:20;;;;;;;8.35;3.00;;;23.20;47.90;;;;;;9184564;19;20025;-65
2022/07/20 03:00:26;;;;;;;9.02;3.10;;;23.20;47.90;;;;;;9185993;19;20341;-65
2022/07/20 03:03:31;;;;;;;4.20;3.00;;;23.10;48.00;;;;;;9184346;19;20131;-65
2022/07/20 03:06:36;;;;;;;14.50;3.70;;;23.10;48.00;;;;;;9181730;19;20542;-65
2022/07/20 03:09:43;;;;;;;9.82;3.35;;;23.10;48.10;;;;;;9183272;19;20491;-65
2022/07/20 03:12:48;;;;;;;8.25;3.42;;;23.00;48.20;;;;;;9183821;19;20341;-66
2022/07/20 03:15:54;;;;;;;8.35;3.13;;;23.00;48.20;;;;;;9186176;19;20014;-65
2022/07/20 03:18:59;;;;;;;11.88;3.25;;;23.00;48.30;;;;;;9184736;19;20536;-65
2022/07/20 03:22:04;;;;;;;9.73;3.20;;;22.90;48.30;;;;;;9183539;19;20018;-65
2022/07/20 03:25:12;;;;;;;7.50;3.22;;;22.90;48.30;;;;;;9186092;19;20021;-65
2022/07/20 03:28:18;;;;;;;5.18;3.25;;;22.90;48.50;;;;;;9184200;19;20014;-65
2022/07/20 03:31:23;;;;;;;11.15;4.00;;;22.80;48.40;;;;;;9180744;19;20019;-65
2022/07/20 03:34:30;;;;;;;9.13;3.90;;;22.80;48.50;;;;;;9183278;19;20010;-64
2022/07/20 03:37:35;;;;;;;9.90;3.90;;;22.80;48.60;;;;;;9183129;19;20495;-65
2022/07/20 03:40:43;;;;;;;8.38;3.45;;;22.70;48.50;;;;;;9183050;19;20022;-65
2022/07/20 03:43:49;;;;;;;9.63;3.60;;;22.70;49.00;;;;;;9183011;19;20372;-64
2022/07/20 03:46:54;;;;;;;12.07;3.75;;;22.70;48.60;;;;;;9183546;19;20025;-64
2022/07/20 03:49:59;;;;;;;7.45;3.28;;;22.60;48.60;;;;;;9184206;19;20014;-65
2022/07/20 03:53:04;;;;;;;6.03;3.17;;;22.60;48.70;;;;;;9182479;19;20011;-66
2022/07/20 03:56:11;;;;;;;8.90;3.60;;;22.60;48.80;;;;;;9182283;19;20077;-64
2022/07/20 03:59:16;;;;;;;9.80;3.70;;;22.60;48.90;;;;;;9182631;19;20410;-65
2022/07/20 04:02:21;;;;;;;6.63;3.88;;;22.50;48.80;;;;;;9183173;19;20026;-66
2022/07/20 04:05:27;;;;;;;6.93;3.78;;;22.50;48.90;;;;;;9176130;19;20579;-65
2022/07/20 04:08:31;;;;;;;7.43;3.33;;;22.50;49.00;;;;;;9183567;19;20021;-66
2022/07/20 04:11:39;;;;;;;6.68;3.13;;;22.50;49.00;;;;;;9180796;19;20022;-64
2022/07/20 04:14:45;;;;;;;12.82;3.55;;;22.50;49.10;;;;;;9181724;19;20517;-65
2022/07/20 04:17:50;;;;;;;5.88;3.08;;;22.40;49.10;;;;;;9179374;19;20015;-64
2022/07/20 04:20:55;;;;;;;7.00;2.63;;;22.50;49.30;;;;;;9183382;19;20018;-64
2022/07/20 04:24:00;;;;;;;8.95;3.72;;;22.40;49.20;;;;;;9183529;19;20032;-64
2022/07/20 04:27:07;;;;;;;9.90;3.53;;;22.40;49.30;;;;;;9182856;19;20006;-65
2022/07/20 04:30:14;;;;;;;6.00;3.42;;;22.40;49.40;;;;;;9183125;19;20030;-64
2022/07/20 04:33:19;;;;;;;9.98;3.25;;;22.40;49.50;;;;;;9183459;19;20356;-63
2022/07/20 04:36:24;;;;;;;3.85;2.85;;;22.40;49.50;;;;;;9181204;19;20491;-64
2022/07/20 04:39:29;;;;;;;8.50;2.97;;;22.40;49.60;;;;;;9181825;19;20033;-64
2022/07/20 04:42:37;;;;;;;5.03;2.88;;;22.40;49.70;;;;;;9182369;19;20357;-65
2022/07/20 04:45:42;;;;;;;4.97;3.08;;;22.40;49.90;;;;;;9180575;19;20486;-65
2022/07/20 04:48:47;;;;;;;7.35;3.35;;;22.30;49.90;;;;;;9181565;19;20545;-64
2022/07/20 04:51:52;;;;;;;9.48;3.40;;;22.40;50.00;;;;;;9178944;19;20020;-64
2022/07/20 04:54:57;;;;;;;15.18;3.65;;;22.30;50.00;;;;;;9182455;19;20011;-64
2022/07/20 04:58:05;;;;;;;9.38;3.42;;;22.30;50.10;;;;;;9180158;19;20023;-65
2022/07/20 05:01:10;;;;;;;9.90;3.00;;;22.30;50.30;;;;;;9177870;19;20018;-63
2022/07/20 05:04:16;;;;;;;7.93;3.90;;;22.30;50.20;;;;;;9176109;19;20018;-65
2022/07/20 05:07:21;;;;;;;7.45;3.45;;;22.40;50.50;;;;;;9171422;19;20100;-64
2022/07/20 05:10:26;;;;;;;6.65;3.55;;;22.40;50.50;;;;;;9174796;19;20018;-64
2022/07/20 05:13:34;;;;;;;5.35;3.40;;;22.40;50.50;;;;;;9173246;19;20023;-64
2022/07/20 05:16:39;;;;;;;6.28;3.58;;;22.40;50.60;;;;;;9176928;19;20025;-65
2022/07/20 05:19:44;;;;;;;10.48;3.42;;;22.40;50.50;;;;;;9179315;19;20580;-64
2022/07/20 05:22:49;;;;;;;8.23;3.13;;;22.40;50.50;;;;;;9179703;19;20013;-64
2022/07/20 05:25:55;;;;;;;13.45;3.88;;;22.40;50.60;;;;;;9180921;19;20006;-64
2022/07/20 05:29:03;;;;;;;9.70;4.10;;;22.40;50.60;;;;;;9181047;19;20018;-65
2022/07/20 05:32:10;;;;;;;8.32;3.38;;;22.50;50.70;;;;;;9177048;19;20014;-65
2022/07/20 05:35:15;;;;;;;9.73;3.80;;;22.50;50.70;;;;;;9180509;19;20025;-65
2022/07/20 05:38:20;;;;;;;9.25;3.60;;;22.60;50.80;;;;;;9178611;19;20367;-65
2022/07/20 05:41:26;;;;;;;12.77;3.83;;;22.60;50.70;;;;;;9178380;19;20034;-65
2022/07/20 05:44:33;;;;;;;15.18;3.78;;;22.70;50.70;;;;;;9178637;19;20014;-66
2022/07/20 05:47:38;;;;;;;8.15;4.07;;;22.80;50.90;;;;;;9178050;19;20052;-66
2022/07/20 05:50:48;;;;;;;10.32;4.50;;;22.90;50.80;;;;;;9179423;19;20019;-66
2022/07/20 05:53:53;;;;;;;5.65;3.22;;;23.10;51.00;;;;;;9179868;19;20018;-65
2022/07/20 05:56:58;;;;;;;14.65;3.47;;;23.20;51.00;;;;;;9178550;19;20014;-66
2022/07/20 06:00:07;;;;;;;14.80;3.63;;;23.50;51.10;;;;;;9180615;19;20346;-65
2022/07/20 06:03:12;;;;;;;8.02;3.55;;;23.70;51.10;;;;;;9177667;19;20015;-65
2022/07/20 06:06:17;;;;;;;6.97;3.33;;;23.90;51.10;;;;;;9169381;19;20019;-65
2022/07/20 06:09:22;;;;;;;8.68;3.05;;;24.20;51.00;;;;;;9177463;19;20352;-66
2022/07/20 06:12:29;;;;;;;9.02;3.85;;;24.50;50.70;;;;;;9174690;19;20018;-66
2022/07/20 06:15:37;;;;;;;11.18;3.75;;;24.80;50.30;;;;;;9170781;19;20019;-66
2022/07/20 06:18:42;;;;;;;10.52;3.40;;;25.10;50.00;;;;;;9170442;19;20076;-65
2022/07/20 06:21:51;;;;;;;8.90;3.03;;;25.40;49.80;;;;;;9176477;19;20018;-64
2022/07/20 06:24:56;;;;;;;12.00;3.78;;;25.70;49.60;;;;;;9180426;19;20795;-66
2022/07/20 06:28:04;;;;;;;10.88;3.33;;;25.90;49.20;;;;;;9179660;19;20017;-65
2022/07/20 06:31:15;;;;;;;6.72;3.35;;;26.20;49.70;;;;;;9175988;19;20340;-64
2022/07/20 06:34:20;;;;;;;8.55;3.72;;;26.50;49.00;;;;;;9180777;19;20053;-65
2022/07/20 06:37:25;;;;;;;8.13;3.03;;;26.70;48.80;;;;;;9178767;19;20025;-64
2022/07/20 06:40:32;;;;;;;5.20;3.40;;;27.00;48.60;;;;;;9181422;19;20014;-65
2022/07/20 06:43:38;;;;;;;8.75;3.83;;;27.20;48.40;;;;;;9180321;19;20412;-65
2022/07/20 06:46:46;;;;;;;9.50;3.40;;;27.50;48.20;;;;;;9182249;19;20018;-65
2022/07/20 06:49:55;;;;;;;9.30;4.13;;;27.70;48.10;;;;;;9174206;19;20021;-67
2022/07/20 06:53:07;;;;;;;10.75;5.15;;;27.90;48.00;;;;;;9161407;19;20630;-66
2022/07/20 06:56:12;;;;;;;7.57;3.65;;;28.10;47.80;;;;;;9168939;19;20037;-65
2022/07/20 06:59:19;;;;;;;16.35;5.07;;;28.30;47.70;;;;;;9170831;19;20021;-65
2022/07/20 07:02:27;;;;;;;16.30;4.80;;;28.50;47.60;;;;;;9173429;19;20014;-66
2022/07/20 07:05:34;;;;;;;15.85;4.97;;;28.70;47.50;;;;;;9169100;19;20023;-65
2022/07/20 07:08:39;;;;;;;9.88;4.80;;;28.90;47.50;;;;;;9176547;19;20014;-64
2022/07/20 07:11:45;;;;;;;14.88;4.60;;;29.10;47.40;;;;;;9176604;19;20018;-66
2022/07/20 07:14:50;;;;;;;14.77;5.10;;;29.20;47.30;;;;;;9179258;19;20025;-65
2022/07/20 07:18:02;;;;;;;28.30;5.88;;;29.40;47.30;;;;;;9177648;19;20022;-66
2022/07/20 07:21:08;;;;;;;11.07;4.97;;;29.60;47.10;;;;;;9174459;19;20015;-65
2022/07/20 07:24:13;;;;;;;17.10;5.75;;;29.80;47.10;;;;;;9178420;19;20114;-66
2022/07/20 07:27:18;;;;;;;13.98;4.85;;;30.00;47.00;;;;;;9177303;19;20014;-65
2022/07/20 07:30:23;;;;;;;16.70;5.78;;;30.20;46.90;;;;;;9175714;19;20033;-66
2022/07/20 07:33:31;;;;;;;21.15;5.90;;;30.40;46.90;;;;;;9171498;19;20029;-66
2022/07/20 07:36:36;;;;;;;19.58;5.97;;;30.50;46.80;;;;;;9177297;19;20011;-65
2022/07/20 07:39:42;;;;;;;18.33;5.80;;;30.70;46.80;;;;;;9175240;19;20114;-67
2022/07/20 07:42:47;;;;;;;14.43;6.70;;;30.80;46.70;;;;;;9178896;19;20018;-69
2022/07/20 07:45:53;;;;;;;19.15;6.78;;;31.00;46.70;;;;;;9175501;19;20089;-67
2022/07/20 07:49:01;;;;;;;21.50;7.53;;;31.20;46.70;;;;;;9175456;19;20522;-66
2022/07/20 07:52:09;;;;;;;17.73;8.80;;;31.30;46.80;;;;;;9176109;19;20011;-66
2022/07/20 07:55:14;;;;;;;23.63;8.60;;;31.50;46.80;;;;;;9176665;19;20014;-66
2022/07/20 07:58:19;;;;;;;17.15;8.95;;;31.60;46.80;;;;;;9177132;19;20014;-65
2022/07/20 08:01:25;;;;;;;23.33;9.23;;;31.80;46.90;;;;;;9167583;19;20149;-66
2022/07/20 08:04:37;;;;;;;22.85;10.18;;;31.90;46.90;;;;;;9168596;19;20649;-65
2022/07/20 08:07:42;;;;;;;33.85;10.20;;;32.00;47.00;;;;;;9163338;19;20021;-67
2022/07/20 08:10:47;;;;;;;28.13;11.23;;;32.10;47.00;;;;;;9171308;19;20410;-66
2022/07/20 08:13:53;;;;;;;30.17;11.88;;;32.30;47.10;;;;;;9166352;19;20018;-67
2022/07/20 08:17:00;;;;;;;24.73;11.98;;;32.40;47.20;;;;;;9168510;19;20025;-65
2022/07/20 08:20:09;;;;;;;23.58;12.23;;;32.50;47.20;;;;;;9166814;19;20057;-67
2022/07/20 08:23:15;;;;;;;29.45;11.82;;;32.60;47.20;;;;;;9170036;19;20015;-64
2022/07/20 08:26:22;;;;;;;23.83;11.90;;;32.60;47.10;;;;;;9169237;19;20018;-66
2022/07/20 08:29:28;;;;;;;25.52;12.75;;;32.70;47.10;;;;;;9167738;19;20041;-66
2022/07/20 08:32:33;;;;;;;25.67;13.70;;;32.80;47.00;;;;;;9167310;19;20026;-67
2022/07/20 08:35:42;;;;;;;24.27;14.18;;;33.00;47.00;;;;;;9166892;19;20014;-64
2022/07/20 08:38:49;;;;;;;25.70;14.13;;;33.00;46.80;;;;;;9169743;19;20017;-66
2022/07/20 08:41:55;;;;;;;39.53;14.70;;;33.10;46.70;;;;;;9167408;19;20026;-65
2022/07/20 08:45:01;;;;;;;26.77;14.45;;;33.10;46.50;;;;;;9168987;19;20018;-64
2022/07/20 08:48:11;;;;;;;26.23;15.27;;;33.20;46.50;;;;;;9171199;19;20086;-67
2022/07/20 08:51:18;;;;;;;30.30;13.95;;;33.30;46.40;;;;;;9172549;19;20014;-65
2022/07/20 08:54:23;;;;;;;27.40;14.13;;;33.30;46.30;;;;;;9171300;19;20018;-66
2022/07/20 08:57:29;;;;;;;35.90;15.35;;;33.40;46.20;;;;;;9172186;19;20039;-66
2022/07/20 09:00:34;;;;;;;28.17;14.23;;;33.50;46.10;;;;;;9173797;19;20044;-66
2022/07/20 09:03:41;;;;;;;30.73;15.93;;;33.60;46.10;;;;;;9173257;19;20022;-66
2022/07/20 09:06:52;;;;;;;26.08;14.45;;;33.70;46.00;;;;;;9168012;19;20011;-67
2022/07/20 09:10:04;;;;;;;26.08;14.70;;;33.70;45.80;;;;;;9173327;19;20018;-68
2022/07/20 09:13:12;;;;;;;26.50;15.38;;;33.80;45.70;;;;;;9172738;19;20353;-67
2022/07/20 09:16:36;;;;;;;25.88;13.45;;;33.80;45.60;;;;;;9170060;19;20015;-68
2022/07/20 09:20:00;;;;;;;24.75;12.73;;;33.90;45.40;;;;;;9170818;19;20396;-67
2022/07/20 09:23:10;;;;;;;24.33;14.00;;;33.90;45.30;;;;;;9171242;19;20014;-67
2022/07/20 09:26:20;;;;;;;22.10;13.80;;;34.00;45.30;;;;;;9170495;19;20496;-68
2022/07/20 09:29:25;;;;;;;24.98;14.48;;;34.00;45.20;;;;;;9168838;19;20018;-67
2022/07/20 09:32:31;;;;;;;22.40;13.52;;;34.10;45.20;;;;;;9169006;19;20074;-69
2022/07/20 09:35:38;;;;;;;34.55;13.93;;;34.10;45.10;;;;;;9172556;19;20010;-68
2022/07/20 09:38:48;;;;;;;23.40;13.85;;;34.20;45.00;;;;;;9170355;19;20492;-68
2022/07/20 09:41:56;;;;;;;23.35;13.85;;;34.30;44.90;;;;;;9172373;19;20025;-70
2022/07/20 09:45:20;;;;;;;26.30;13.05;;;34.30;44.90;;;;;;9172427;19;20446;-69
2022/07/20 09:48:50;;;;;;;26.08;13.57;;;34.40;44.70;;;;;;9169802;19;20054;-71
2022/07/20 09:52:01;;;;;;;21.90;13.80;;;34.50;44.70;;;;;;9169028;19;20054;-69
2022/07/20 09:55:35;;;;;;;25.10;12.52;;;34.60;44.70;;;;;;9172344;19;20030;-67
2022/07/20 09:58:40;;;;;;;26.85;13.45;;;34.60;44.40;;;;;;9180473;19;20387;-71
2022/07/20 10:01:47;;;;;;;24.38;12.38;;;34.70;44.30;;;;;;9178556;19;20501;-66
2022/07/20 10:04:53;;;;;;;22.58;12.55;;;34.80;44.20;;;;;;9172127;19;20029;-70
2022/07/20 10:08:03;;;;;;;22.33;12.35;;;34.80;44.00;;;;;;9177603;19;20018;-68
2022/07/20 10:11:11;;;;;;;24.52;13.25;;;34.90;44.00;;;;;;9180450;19;20054;-68
2022/07/20 10:14:20;;;;;;;17.73;10.98;;;35.00;43.90;;;;;;9175600;19;20014;-70
2022/07/20 10:17:25;;;;;;;18.23;10.90;;;35.00;43.70;;;;;;9176837;19;20595;-68
2022/07/20 10:20:33;;;;;;;22.10;10.70;;;35.10;43.70;;;;;;9176763;19;20018;-68
2022/07/20 10:23:38;;;;;;;19.48;10.85;;;35.10;43.50;;;;;;9173203;19;20145;-67
2022/07/20 10:26:46;;;;;;;26.08;10.30;;;35.20;43.50;;;;;;9176042;19;20484;-65
2022/07/20 10:29:54;;;;;;;18.60;10.00;;;35.30;43.40;;;;;;9178840;19;20018;-63
2022/07/20 10:33:00;;;;;;;18.20;10.50;;;35.40;43.20;;;;;;9179924;19;20018;-66
2022/07/20 10:39:46;;;;;;;20.85;10.23;;;35.50;42.90;;;;;;9170480;19;20022;-68
2022/07/20 10:42:56;;;;;;;17.65;10.38;;;35.50;43.40;;;;;;9180279;19;20014;-66
2022/07/20 10:46:01;;;;;;;23.15;11.15;;;35.60;42.80;;;;;;9180654;19;20724;-66
2022/07/20 10:49:06;;;;;;;16.00;10.02;;;35.70;42.80;;;;;;9179705;19;20022;-67
2022/07/20 10:52:30;;;;;;;16.33;9.77;;;35.70;42.70;;;;;;9178909;19;20014;-65
2022/07/20 10:55:52;;;;;;;31.20;10.25;;;35.80;42.70;;;;;;9178211;19;20067;-65
2022/07/20 10:59:03;;;;;;;24.83;10.73;;;35.80;42.60;;;;;;9175165;19;20018;-66
2022/07/20 11:02:16;;;;;;;19.35;10.15;;;35.80;42.50;;;;;;9174523;19;20018;-64
2022/07/20 11:05:23;;;;;;;19.85;9.75;;;35.90;42.60;;;;;;9167197;19;20022;-67
2022/07/20 11:08:28;;;;;;;15.73;9.68;;;35.90;42.40;;;;;;9176904;19;20034;-64
2022/07/20 11:11:36;;;;;;;17.38;10.77;;;36.00;42.40;;;;;;9184645;19;20018;-64
2022/07/20 11:14:56;;;;;;;17.77;9.95;;;36.00;42.30;;;;;;9180530;19;20018;-65
2022/07/20 11:18:01;;;;;;;15.93;9.38;;;36.10;42.20;;;;;;9185130;19;20376;-65
2022/07/20 11:21:08;;;;;;;21.55;9.05;;;36.20;42.20;;;;;;9181452;19;20050;-65
2022/07/20 11:24:23;;;;;;;21.17;9.18;;;36.20;42.10;;;;;;9181012;19;20019;-65
2022/07/20 11:27:28;;;;;;;17.23;9.88;;;36.30;42.00;;;;;;9181609;19;20011;-66
2022/07/20 11:30:37;;;;;;;13.60;9.13;;;36.30;42.00;;;;;;9175758;19;20114;-66
2022/07/20 11:33:44;;;;;;;12.63;7.10;;;36.30;42.00;;;;;;9178737;19;20574;-65
2022/07/20 11:36:50;;;;;;;15.48;7.68;;;36.30;41.90;;;;;;9182019;19;20029;-65
2022/07/20 11:39:55;;;;;;;13.07;7.25;;;36.30;41.80;;;;;;9181363;19;20021;-65
2022/07/20 11:43:08;;;;;;;19.65;7.80;;;36.30;41.70;;;;;;9184032;19;20460;-65
2022/07/20 11:46:19;;;;;;;13.52;7.28;;;36.30;41.60;;;;;;9180998;19;20498;-65
2022/07/20 11:49:26;;;;;;;15.63;7.85;;;36.30;41.60;;;;;;9177363;19;20015;-65
2022/07/20 11:52:41;;;;;;;11.55;7.60;;;36.30;41.70;;;;;;9183163;19;20018;-65
2022/07/20 11:55:46;;;;;;;12.13;7.68;;;36.30;41.60;;;;;;9178259;19;20017;-64
2022/07/20 11:58:53;;;;;;;17.60;8.07;;;36.30;41.70;;;;;;9182604;19;20022;-64
2022/07/20 12:02:02;;;;;;;18.25;7.28;;;36.30;41.60;;;;;;9181013;19;20018;-64
2022/07/20 12:05:10;;;;;;;14.32;7.10;;;36.30;41.60;;;;;;9175446;19;20019;-64
2022/07/20 12:08:16;;;;;;;14.70;7.38;;;36.30;41.50;;;;;;9183145;19;20625;-64
2022/07/20 12:11:21;;;;;;;21.55;7.80;;;36.30;41.50;;;;;;9181839;19;20014;-64
2022/07/20 12:14:31;;;;;;;14.05;6.85;;;36.30;41.50;;;;;;9179424;19;20014;-65
2022/07/20 12:17:58;;;;;;;18.98;7.30;;;36.30;41.50;;;;;;9176491;19;20014;-67
2022/07/20 12:21:04;;;;;;;17.15;7.55;;;36.40;41.50;;;;;;9180195;19;20010;-66
2022/07/20 12:24:09;;;;;;;14.20;7.03;;;36.40;41.50;;;;;;9179195;19;20015;-65
2022/07/20 12:27:16;;;;;;;15.90;7.47;;;36.40;41.40;;;;;;9181412;19;20030;-65
2022/07/20 12:30:28;;;;;;;11.65;6.90;;;36.40;41.30;;;;;;9180328;19;20031;-65
2022/07/20 12:33:36;;;;;;;13.00;6.88;;;36.50;41.30;;;;;;9178149;19;20022;-65
2022/07/20 12:36:45;;;;;;;14.20;6.95;;;36.50;41.30;;;;;;9175875;19;20021;-65
2022/07/20 12:39:53;;;;;;;14.52;6.78;;;36.60;41.40;;;;;;9174229;19;20019;-65
2022/07/20 12:42:58;;;;;;;12.27;6.70;;;36.60;41.30;;;;;;9179864;19;20014;-65
2022/07/20 12:46:06;;;;;;;14.80;6.63;;;36.60;41.30;;;;;;9179982;19;20468;-66
2022/07/20 12:49:21;;;;;;;13.60;6.20;;;36.60;41.30;;;;;;9180519;19;20048;-66
2022/07/20 12:52:26;;;;;;;11.18;6.32;;;36.70;41.20;;;;;;9177652;19;20021;-65
2022/07/20 12:55:31;;;;;;;15.20;6.63;;;36.70;41.20;;;;;;9175412;19;20074;-66
2022/07/20 12:58:37;;;;;;;12.05;6.10;;;36.70;41.20;;;;;;9180077;19;20014;-66
2022/07/20 13:01:48;;;;;;;12.45;6.53;;;36.70;41.10;;;;;;9179248;19;20025;-66
2022/07/20 13:04:56;;;;;;;11.38;6.38;;;36.70;41.00;;;;;;9177288;19;21079;-68
2022/07/20 13:08:01;;;;;;;13.38;6.50;;;36.70;41.00;;;;;;9167578;19;20018;-66
2022/07/20 13:11:09;;;;;;;12.70;6.20;;;36.70;41.00;;;;;;9167990;19;20020;-67
2022/07/20 13:14:15;;;;;;;12.98;5.90;;;36.70;40.90;;;;;;9173685;19;20491;-65
2022/07/20 13:17:20;;;;;;;13.82;6.25;;;36.70;40.90;;;;;;9168778;19;20022;-64
2022/07/20 13:20:28;;;;;;;11.52;5.43;;;36.70;40.80;;;;;;9171121;19;20018;-67
2022/07/20 13:23:33;;;;;;;14.43;5.45;;;36.70;40.70;;;;;;9171190;19;20074;-66
2022/07/20 13:26:38;;;;;;;11.60;4.72;;;36.70;40.60;;;;;;9169359;19;20468;-66
2022/07/20 13:29:43;;;;;;;9.93;4.15;;;36.70;40.60;;;;;;9170270;19;20022;-66
2022/07/20 13:32:49;;;;;;;11.18;4.50;;;36.60;40.50;;;;;;9173296;19;20569;-67
2022/07/20 13:35:56;;;;;;;8.43;4.38;;;36.50;40.30;;;;;;9174239;19;20646;-66
2022/07/20 13:39:02;;;;;;;8.93;4.93;;;36.50;40.40;;;;;;9171107;19;20018;-66
2022/07/20 13:42:08;;;;;;;8.70;4.63;;;36.40;40.40;;;;;;9173962;19;20017;-66
2022/07/20 13:45:13;;;;;;;11.95;5.07;;;36.40;40.40;;;;;;9172481;19;20051;-66
2022/07/20 13:48:18;;;;;;;7.43;4.55;;;36.30;40.40;;;;;;9173083;19;20019;-67
2022/07/20 13:51:26;;;;;;;16.55;5.00;;;36.30;40.50;;;;;;9171868;19;20022;-65
2022/07/20 13:54:51;;;;;;;12.50;4.72;;;36.30;40.40;;;;;;9173342;19;20027;-65
2022/07/20 13:57:56;;;;;;;9.30;4.43;;;36.30;40.40;;;;;;9174010;19;20093;-65
2022/07/20 14:01:01;;;;;;;9.23;4.55;;;36.30;40.30;;;;;;9173053;19;20029;-67
2022/07/20 14:04:06;;;;;;;9.38;4.93;;;36.30;40.30;;;;;;9169232;19;20368;-67
2022/07/20 14:07:14;;;;;;;7.85;4.68;;;36.30;40.40;;;;;;9169619;19;20068;-66
2022/07/20 14:10:19;;;;;;;14.90;4.72;;;36.30;40.40;;;;;;9172045;19;20019;-65
2022/07/20 14:13:25;;;;;;;12.00;5.40;;;36.30;40.50;;;;;;9173153;19;20380;-65
2022/07/20 14:16:30;;;;;;;10.60;4.32;;;36.30;40.40;;;;;;9166257;19;20033;-65
2022/07/20 14:19:35;;;;;;;9.63;4.82;;;36.20;40.50;;;;;;9168426;19;20007;-66
2022/07/20 14:22:44;;;;;;;8.85;5.05;;;36.20;40.50;;;;;;9167290;19;20014;-65
2022/07/20 14:25:49;;;;;;;8.45;4.88;;;36.10;40.50;;;;;;9168695;19;20018;-65
2022/07/20 14:28:54;;;;;;;8.48;4.95;;;36.10;40.60;;;;;;9169029;19;20491;-65
2022/07/20 14:32:00;;;;;;;7.38;4.70;;;36.00;40.60;;;;;;9167452;19;20018;-67
2022/07/20 14:35:05;;;;;;;13.52;4.90;;;36.00;40.60;;;;;;9166832;19;20026;-66
2022/07/20 14:38:15;;;;;;;12.07;5.50;;;35.90;40.70;;;;;;9167061;19;20099;-65
2022/07/20 14:41:21;;;;;;;9.32;5.32;;;35.90;40.80;;;;;;9174062;19;20376;-65
2022/07/20 14:44:26;;;;;;;11.13;5.18;;;35.90;40.80;;;;;;9177386;19;20015;-66
2022/07/20 14:47:31;;;;;;;13.40;5.22;;;35.80;40.70;;;;;;9176203;19;20097;-67
2022/07/20 14:50:37;;;;;;;11.30;5.30;;;35.70;40.70;;;;;;9177147;19;20025;-66
2022/07/20 14:53:45;;;;;;;13.45;4.97;;;35.60;40.80;;;;;;9178065;19;20022;-66
2022/07/20 14:56:50;;;;;;;15.40;4.97;;;35.60;40.90;;;;;;9177310;19;20455;-65
2022/07/20 14:59:57;;;;;;;9.90;5.28;;;35.60;40.90;;;;;;9179220;19;20022;-65
2022/07/20 15:03:02;;;;;;;7.57;4.60;;;35.60;41.00;;;;;;9176618;19;20056;-67
2022/07/20 15:06:08;;;;;;;10.00;4.95;;;35.50;41.00;;;;;;9166749;19;20023;-67
2022/07/20 15:09:16;;;;;;;10.30;5.15;;;35.50;41.10;;;;;;9176152;19;20017;-67
2022/07/20 15:12:26;;;;;;;10.17;4.70;;;35.40;41.10;;;;;;9173427;19;20048;-67
2022/07/20 15:15:31;;;;;;;6.95;4.20;;;35.50;41.20;;;;;;9170642;19;21432;-66
2022/07/20 15:18:36;;;;;;;8.45;3.63;;;35.50;41.10;;;;;;9174546;19;20014;-66
2022/07/20 15:21:41;;;;;;;5.78;3.78;;;35.40;41.10;;;;;;9171313;19;20014;-66
2022/07/20 15:24:49;;;;;;;10.70;3.80;;;35.40;41.10;;;;;;9171841;19;20015;-65
2022/07/20 15:27:54;;;;;;;10.98;3.92;;;35.30;41.10;;;;;;9174877;19;20030;-65
2022/07/20 15:30:59;;;;;;;10.18;4.22;;;35.30;41.10;;;;;;9171376;19;20025;-66
2022/07/20 15:34:04;;;;;;;5.97;3.33;;;35.30;41.10;;;;;;9176817;19;20018;-66
2022/07/20 15:37:10;;;;;;;7.47;4.30;;;35.30;41.10;;;;;;9176531;19;20034;-66
2022/07/20 15:40:18;;;;;;;8.15;3.90;;;35.30;41.20;;;;;;9173088;19;20342;-67
2022/07/20 15:43:23;;;;;;;10.75;4.38;;;35.30;41.10;;;;;;9175680;19;20021;-66
2022/07/20 15:46:28;;;;;;;7.63;3.85;;;35.20;41.10;;;;;;9177554;19;20025;-67
2022/07/20 15:49:34;;;;;;;13.73;4.68;;;35.20;41.20;;;;;;9174318;19;20030;-67
2022/07/20 15:52:41;;;;;;;8.70;3.80;;;35.20;41.30;;;;;;9173679;19;20033;-65
2022/07/20 15:55:49;;;;;;;8.10;3.83;;;35.20;41.40;;;;;;9179859;19;20010;-66
2022/07/20 15:58:54;;;;;;;10.00;3.50;;;35.10;41.40;;;;;;9181753;19;20372;-65
2022/07/20 16:02:01;;;;;;;7.72;4.03;;;35.00;41.50;;;;;;9180569;19;20033;-65
2022/07/20 16:05:14;;;;;;;12.50;3.20;;;34.90;41.40;;;;;;9167101;19;20019;-65
2022/07/20 16:08:20;;;;;;;17.73;3.65;;;34.80;41.50;;;;;;9179613;19;20021;-66
2022/07/20 16:11:28;;;;;;;6.22;3.47;;;34.70;41.50;;;;;;9179036;19;20341;-65